Flight Track Log - Related Links

Times and Time Zones

All times are in EST time to prevent confusion due to time zone crossing. See the UAL1116 flight status page for this flight to view local times or setup timezone preferences in your user account.

Time Position Orientation Groundspeed Altitude Reporting Facility
EST Latitude Longitude Course Direction KTS MPH feet Rate Location/Type
Wed 06:38:12 PM 42.3500 -71.0167 261° West 144 166 1,000  Level KA90
Wed 06:39:43 PM 42.3089 -70.9358 124° Southeast 230 265 6,400 3,219 Climbing Boston Center
Wed 06:40:43 PM 42.3272 -70.8431 75° East 280 322 9,100 2,557 Climbing Boston Center
Wed 06:41:45 PM 42.2972 -70.7375 111° Southeast 340 391 11,600 2,557 Climbing Boston Center
Wed 06:42:00 PM 42.1648 -71.0926 255° West  Level FlightAware Approximate
Wed 06:42:45 PM 42.2139 -70.7594 191° South 329 379 14,300  Level Boston Center
Wed 06:43:00 PM 42.1473 -71.1885 261° West  Level FlightAware Approximate
Wed 06:43:49 PM 42.1836 -70.8967 253° West 340 391 16,000  Level Boston Center
Wed 06:44:49 PM 42.1703 -71.0111 261° West 312 359 16,000  Level Boston Center
Wed 06:45:51 PM 42.1553 -71.1186 259° West 296 341 16,000  Level Boston Center
Wed 06:46:51 PM 42.1403 -71.2383 260° West 301 346 16,000  Level Boston Center
Wed 06:47:52 PM 42.1261 -71.3475 260° West 298 343 16,000  Level Boston Center
Wed 06:48:55 PM 42.1114 -71.4578 260° West 301 346 16,000  Level Boston Center
Wed 06:49:55 PM 42.0953 -71.5761 260° West 301 346 16,000  Level Boston Center
Wed 06:50:57 PM 42.0817 -71.6853 260° West 299 344 16,000  Level Boston Center
Wed 06:51:58 PM 42.0656 -71.7969 259° West 305 351 16,000  Level Boston Center
Wed 06:52:58 PM 42.0494 -71.9169 260° West 303 349 16,000  Level Boston Center
Wed 06:54:02 PM 42.0342 -72.0244 259° West 304 350 16,000  Level Boston Center
Wed 06:55:02 PM 42.0178 -72.1453 260° West 304 350 16,000  Level Boston Center
Wed 06:56:03 PM 42.0022 -72.2564 259° West 305 351 16,000  Level Boston Center
Wed 06:57:03 PM 41.9861 -72.3683 259° West 304 350 16,000  Level Boston Center
Wed 06:58:06 PM 41.9697 -72.4878 260° West 302 348 16,000  Level Boston Center
Wed 06:59:07 PM 41.9542 -72.5986 259° West 303 349 16,000  Level Boston Center
Wed 07:00:07 PM 41.9403 -72.6942 259° West 299 344 16,000  Level Boston Center
Wed 07:01:09 PM 41.9078 -72.8311 252° West 335 386 16,000  Level Boston Center
Wed 07:02:11 PM 41.8797 -72.9511 253° West 339 390 16,000  Level Boston Center
Wed 07:03:11 PM 41.8486 -73.0797 252° West 338 389 16,000  Level Boston Center
Wed 07:04:14 PM 41.8203 -73.1978 252° West 335 386 16,000  Level Boston Center
Wed 07:05:15 PM 41.7908 -73.3178 252° West 342 394 16,000 -50 Level Boston Center
Wed 07:06:15 PM 41.7589 -73.4450 251° West 340 391 15,900 -545 Descending Boston Center
Wed 07:07:16 PM 41.7297 -73.5653 252° West 340 391 14,900 -1,016 Descending Boston Center
Wed 07:08:19 PM 41.7011 -73.6825 252° West 333 383 13,800 -1,065 Descending Boston Center
Wed 07:09:20 PM 41.6719 -73.7969 251° West 326 375 12,700 -1,091 Descending Boston Center
Wed 07:10:20 PM 41.6425 -73.9197 252° West 322 371 11,600 -1,100 Descending Boston Center
Wed 07:11:20 PM 41.5922 -74.0083 233° Southwest 306 352 10,500 -1,645 Descending Boston Center
Wed 07:12:24 PM 41.5417 -74.0822 228° Southwest 274 315 8,200 -569 Descending Boston Center
Wed 07:17:29 PM 41.3047 -74.4228 183° South 244 281 7,000 -181 Descending Boston Center
Wed 07:18:29 PM 41.2422 -74.4636 206° Southwest 256 295 7,100 -372 Climbing Boston Center
Wed 07:19:54 PM 41.1500 -74.5000 197° South 267 307 6,100 -703 Descending New York TRACON
Wed 07:20:54 PM 41.0833 -74.4333 143° Southeast 283 326 5,400 -550 Descending New York TRACON
Wed 07:21:00 PM 41.0158 -74.5367 183° South  Level FlightAware Approximate
Wed 07:21:54 PM 41.0333 -74.3500 128° Southeast 246 283 5,000  Level New York TRACON
Wed 07:22:00 PM 40.9318 -74.5423 183° South  Level FlightAware Approximate
Wed 07:22:54 PM 41.0000 -74.2833 124° Southeast 230 265 5,000  Level New York TRACON
Wed 07:23:54 PM 40.9667 -74.2167 123° Southeast 228 262 4,600 -500 Descending New York TRACON
Wed 07:24:54 PM 40.9333 -74.1500 123° Southeast 223 257 4,000 -550 Descending New York TRACON
Wed 07:25:54 PM 40.9000 -74.0833 123° Southeast 216 249 3,500 -500 Descending New York TRACON
Wed 07:26:54 PM 40.8667 -74.0667 159° South 178 205 3,000 -500 Descending New York TRACON
Wed 07:27:54 PM 40.8167 -74.0833 194° South 168 193 2,500 -550 Descending New York TRACON
Wed 07:28:54 PM 40.7667 -74.1167 207° Southwest 161 185 1,900 -650 Descending New York TRACON
Wed 07:29:54 PM 40.7333 -74.1167 180° South 152 175 1,200 -650 Descending New York TRACON
Wed 07:30:54 PM 40.7000 -74.1167 180° South 122 140 600 -600 Descending New York TRACON
Wed 07:32:00 PM 40.6925 -74.1687 78° East  Level Estimated
Wed 07:39:00 PM 40.6925 -74.1687 78° East  Level Estimated
Wed 07:40:00 PM 40.6925 -74.1687 78° East  Level Estimated

Login

Don't have an account? Register now (free) for customized features, flight alerts, and more!